Time,TemperatureF,DewpointF,PressureIn,WindDirection,WindDirectionDegrees,WindSpeedMPH,WindSpeedGustMPH,Humidity,HourlyPrecipIn,Conditions,Clouds,dailyrainin,SoftwareType,DateUTC
2013-04-02 00:03:00,29.2,11.9,29.67,North,0,3.6,6.0,48,0.00,,,0.00,WUHU216HW,2013-04-02 04:03:00,
2013-04-02 00:08:00,29.2,12.9,29.67,North,0,7.6,7.6,50,0.00,,,0.00,WUHU216HW,2013-04-02 04:08:00,
2013-04-02 00:13:00,29.2,12.4,29.67,North,0,1.6,8.5,49,0.00,,,0.00,WUHU216HW,2013-04-02 04:13:00,
2013-04-02 00:18:00,29.0,12.3,29.67,North,0,4.9,8.5,49,0.00,,,0.00,WUHU216HW,2013-04-02 04:18:00,
2013-04-02 00:23:00,29.0,12.3,29.67,North,0,1.8,5.4,49,0.00,,,0.00,WUHU216HW,2013-04-02 04:23:00,
2013-04-02 00:28:00,28.8,12.6,29.68,North,0,2.5,4.9,50,0.00,,,0.00,WUHU216HW,2013-04-02 04:28:00,
2013-04-02 00:33:00,28.6,12.4,29.68,North,0,2.2,3.4,50,0.00,,,0.00,WUHU216HW,2013-04-02 04:33:00,
2013-04-02 00:38:00,28.4,12.2,29.68,North,0,1.3,5.4,50,0.00,,,0.00,WUHU216HW,2013-04-02 04:38:00,
2013-04-02 00:43:00,28.4,12.2,29.67,North,0,2.7,11.4,50,0.00,,,0.00,WUHU216HW,2013-04-02 04:43:00,
2013-04-02 00:48:00,28.4,12.2,29.67,North,0,1.6,11.4,50,0.00,,,0.00,WUHU216HW,2013-04-02 04:48:00,
2013-04-02 00:53:00,28.4,11.7,29.69,North,0,1.3,4.7,49,0.00,,,0.00,WUHU216HW,2013-04-02 04:53:00,
2013-04-02 00:58:00,28.1,11.3,29.68,North,0,3.6,4.5,49,0.00,,,0.00,WUHU216HW,2013-04-02 04:58:00,
2013-04-02 01:03:00,27.9,11.7,29.69,North,0,3.8,4.5,50,0.00,,,0.00,WUHU216HW,2013-04-02 05:03:00,
2013-04-02 01:08:00,27.7,11.0,29.69,North,0,5.6,6.0,49,0.00,,,0.00,WUHU216HW,2013-04-02 05:08:00,
2013-04-02 01:13:00,28.1,10.9,29.69,North,0,0.7,6.0,48,0.00,,,0.00,WUHU216HW,2013-04-02 05:13:00,
2013-04-02 01:18:00,27.9,11.7,29.68,North,0,0.2,5.6,50,0.00,,,0.00,WUHU216HW,2013-04-02 05:18:00,
2013-04-02 01:23:00,27.4,11.6,29.68,North,0,0.0,1.8,51,0.00,,,0.00,WUHU216HW,2013-04-02 05:23:00,
2013-04-02 01:28:00,26.6,12.1,29.69,North,0,1.1,1.1,54,0.00,,,0.00,WUHU216HW,2013-04-02 05:28:00,
2013-04-02 01:33:00,26.5,11.5,29.69,North,0,2.9,4.5,53,0.00,,,0.00,WUHU216HW,2013-04-02 05:33:00,
2013-04-02 01:38:00,26.6,11.7,29.69,North,0,0.0,4.5,53,0.00,,,0.00,WUHU216HW,2013-04-02 05:38:00,
2013-04-02 01:43:00,26.5,11.5,29.69,North,0,2.0,4.3,53,0.00,,,0.00,WUHU216HW,2013-04-02 05:43:00,
2013-04-02 01:48:00,27.0,11.3,29.69,North,0,0.4,4.3,51,0.00,,,0.00,WUHU216HW,2013-04-02 05:48:00,
2013-04-02 01:53:00,26.8,11.4,29.68,North,0,0.0,3.6,52,0.00,,,0.00,WUHU216HW,2013-04-02 05:53:00,
2013-04-02 01:58:00,26.3,11.8,29.67,North,0,0.4,1.8,54,0.00,,,0.00,WUHU216HW,2013-04-02 05:58:00,
2013-04-02 02:03:00,25.9,11.9,29.68,North,0,1.8,3.8,55,0.00,,,0.00,WUHU216HW,2013-04-02 06:03:00,
2013-04-02 02:08:00,25.9,12.2,29.68,North,0,0.7,3.8,56,0.00,,,0.00,WUHU216HW,2013-04-02 06:08:00,
2013-04-02 02:14:00,25.9,11.4,29.68,North,0,0.4,4.0,54,0.00,,,0.00,WUHU216HW,2013-04-02 06:14:00,
2013-04-02 02:19:00,26.1,11.6,29.68,North,0,0.9,4.0,54,0.00,,,0.00,WUHU216HW,2013-04-02 06:19:00,
2013-04-02 02:24:00,26.3,11.3,29.67,North,0,0.4,4.3,53,0.00,,,0.00,WUHU216HW,2013-04-02 06:24:00,
2013-04-02 02:29:00,26.3,11.8,29.67,North,0,2.0,4.3,54,0.00,,,0.00,WUHU216HW,2013-04-02 06:29:00,
2013-04-02 02:34:00,25.6,11.5,29.67,North,0,0.0,2.2,55,0.00,,,0.00,WUHU216HW,2013-04-02 06:34:00,
2013-04-02 02:39:00,25.0,11.1,29.67,North,0,0.0,1.6,55,0.00,,,0.00,WUHU216HW,2013-04-02 06:39:00,
2013-04-02 02:44:00,24.7,11.2,29.67,North,0,1.1,1.1,56,0.00,,,0.00,WUHU216HW,2013-04-02 06:44:00,
2013-04-02 02:49:00,24.3,11.6,29.67,North,0,0.9,1.1,58,0.00,,,0.00,WUHU216HW,2013-04-02 06:49:00,
2013-04-02 02:54:00,24.1,11.4,29.67,North,0,0.0,1.1,58,0.00,,,0.00,WUHU216HW,2013-04-02 06:54:00,
2013-04-02 02:59:00,23.8,11.1,29.67,North,0,0.0,1.1,58,0.00,,,0.00,WUHU216HW,2013-04-02 06:59:00,
2013-04-02 03:04:00,23.4,10.7,29.67,North,0,1.6,1.6,58,0.00,,,0.00,WUHU216HW,2013-04-02 07:04:00,
2013-04-02 03:09:00,23.4,11.2,29.67,North,0,0.4,3.6,59,0.00,,,0.00,WUHU216HW,2013-04-02 07:09:00,
2013-04-02 03:14:00,24.1,11.8,29.67,North,0,2.0,3.6,59,0.00,,,0.00,WUHU216HW,2013-04-02 07:14:00,
2013-04-02 03:19:00,24.3,12.0,29.67,North,0,0.4,2.5,59,0.00,,,0.00,WUHU216HW,2013-04-02 07:19:00,
2013-04-02 03:24:00,24.1,11.8,29.67,North,0,1.6,2.5,59,0.00,,,0.00,WUHU216HW,2013-04-02 07:24:00,
2013-04-02 03:29:00,23.8,11.5,29.67,North,0,1.1,1.6,59,0.00,,,0.00,WUHU216HW,2013-04-02 07:29:00,
2013-04-02 03:34:00,23.4,11.2,29.67,North,0,0.0,1.6,59,0.00,,,0.00,WUHU216HW,2013-04-02 07:34:00,
2013-04-02 03:39:00,23.2,11.0,29.66,North,0,0.0,1.6,59,0.00,,,0.00,WUHU216HW,2013-04-02 07:39:00,
2013-04-02 03:44:00,23.0,11.2,29.67,North,0,1.6,1.6,60,0.00,,,0.00,WUHU216HW,2013-04-02 07:44:00,
2013-04-02 03:49:00,22.9,11.0,29.67,North,0,1.1,1.6,60,0.00,,,0.00,WUHU216HW,2013-04-02 07:49:00,
2013-04-02 03:54:00,22.9,11.3,29.67,North,0,0.4,1.6,61,0.00,,,0.00,WUHU216HW,2013-04-02 07:54:00,
2013-04-02 03:59:00,22.7,11.2,29.67,North,0,0.4,2.5,61,0.00,,,0.00,WUHU216HW,2013-04-02 07:59:00,
2013-04-02 04:04:00,22.9,11.3,29.67,North,0,0.7,2.5,61,0.00,,,0.00,WUHU216HW,2013-04-02 08:04:00,
2013-04-02 04:09:00,23.0,11.5,29.67,North,0,4.0,4.7,61,0.00,,,0.00,WUHU216HW,2013-04-02 08:09:00,
2013-04-02 04:14:00,23.4,11.5,29.67,North,0,0.4,4.7,60,0.00,,,0.00,WUHU216HW,2013-04-02 08:14:00,
2013-04-02 04:19:00,23.4,11.5,29.67,North,0,1.3,3.6,60,0.00,,,0.00,WUHU216HW,2013-04-02 08:19:00,
2013-04-02 04:24:00,23.2,11.3,29.67,North,0,0.7,2.2,60,0.00,,,0.00,WUHU216HW,2013-04-02 08:24:00,
2013-04-02 04:29:00,22.7,10.8,29.67,North,0,0.0,1.3,60,0.00,,,0.00,WUHU216HW,2013-04-02 08:29:00,
2013-04-02 04:34:00,22.5,10.7,29.67,North,0,1.1,1.1,60,0.00,,,0.00,WUHU216HW,2013-04-02 08:34:00,
2013-04-02 04:39:00,22.3,10.5,29.67,North,0,5.6,5.8,60,0.00,,,0.00,WUHU216HW,2013-04-02 08:39:00,
2013-04-02 04:44:00,23.0,11.2,29.67,North,0,2.0,5.8,60,0.00,,,0.00,WUHU216HW,2013-04-02 08:44:00,
2013-04-02 04:49:00,23.0,11.2,29.67,North,0,0.4,4.0,60,0.00,,,0.00,WUHU216HW,2013-04-02 08:49:00,
2013-04-02 04:54:00,22.9,11.0,29.67,North,0,0.4,1.8,60,0.00,,,0.00,WUHU216HW,2013-04-02 08:54:00,
2013-04-02 04:59:00,23.0,10.8,29.67,North,0,2.0,4.3,59,0.00,,,0.00,WUHU216HW,2013-04-02 08:59:00,
2013-04-02 05:04:00,23.4,11.2,29.67,North,0,1.1,4.3,59,0.00,,,0.00,WUHU216HW,2013-04-02 09:04:00,
2013-04-02 05:09:00,23.2,11.0,29.67,North,0,0.2,3.1,59,0.00,,,0.00,WUHU216HW,2013-04-02 09:09:00,
2013-04-02 05:15:00,22.9,10.6,29.68,North,0,0.0,1.8,59,0.00,,,0.00,WUHU216HW,2013-04-02 09:15:00,
2013-04-02 05:20:00,22.7,10.8,29.68,North,0,0.0,1.1,60,0.00,,,0.00,WUHU216HW,2013-04-02 09:20:00,
2013-04-02 05:25:00,22.5,10.7,29.68,North,0,0.0,0.0,60,0.00,,,0.00,WUHU216HW,2013-04-02 09:25:00,
2013-04-02 05:30:00,22.5,11.1,29.68,North,0,0.0,0.0,61,0.00,,,0.00,WUHU216HW,2013-04-02 09:30:00,
2013-04-02 05:35:00,22.9,11.7,29.68,North,0,0.0,0.4,62,0.00,,,0.00,WUHU216HW,2013-04-02 09:35:00,
2013-04-02 05:40:00,22.9,11.3,29.68,North,0,0.4,0.9,61,0.00,,,0.00,WUHU216HW,2013-04-02 09:40:00,
2013-04-02 05:45:00,23.4,11.9,29.69,North,0,0.4,1.1,61,0.00,,,0.00,WUHU216HW,2013-04-02 09:45:00,
2013-04-02 05:50:00,23.6,12.1,29.69,North,0,0.7,1.1,61,0.00,,,0.00,WUHU216HW,2013-04-02 09:50:00,
2013-04-02 05:55:00,23.8,11.5,29.68,North,0,3.1,4.0,59,0.00,,,0.00,WUHU216HW,2013-04-02 09:55:00,
2013-04-02 06:00:00,24.7,12.0,29.69,North,0,3.1,4.0,58,0.00,,,0.00,WUHU216HW,2013-04-02 10:00:00,
2013-04-02 06:05:00,24.8,12.5,29.68,North,0,0.0,3.6,59,0.00,,,0.00,WUHU216HW,2013-04-02 10:05:00,
2013-04-02 06:10:00,25.0,11.4,29.69,North,0,0.0,3.1,56,0.00,,,0.00,WUHU216HW,2013-04-02 10:10:00,
2013-04-02 06:15:00,25.0,12.3,29.69,North,0,0.2,0.7,58,0.00,,,0.00,WUHU216HW,2013-04-02 10:15:00,
2013-04-02 06:20:00,24.8,12.2,29.69,North,0,0.0,0.7,58,0.00,,,0.00,WUHU216HW,2013-04-02 10:20:00,
2013-04-02 06:25:00,24.7,12.3,29.69,North,0,0.0,0.7,59,0.00,,,0.00,WUHU216HW,2013-04-02 10:25:00,
2013-04-02 06:30:00,24.3,12.0,29.69,North,0,0.4,2.5,59,0.00,,,0.00,WUHU216HW,2013-04-02 10:30:00,
2013-04-02 06:35:00,24.5,12.2,29.70,North,0,0.9,3.1,59,0.00,,,0.00,WUHU216HW,2013-04-02 10:35:00,
2013-04-02 06:40:00,24.5,12.2,29.69,North,0,0.7,3.1,59,0.00,,,0.00,WUHU216HW,2013-04-02 10:40:00,
2013-04-02 06:45:00,24.7,11.5,29.70,North,0,0.7,2.2,57,0.00,,,0.00,WUHU216HW,2013-04-02 10:45:00,
2013-04-02 06:50:00,24.7,11.5,29.70,North,0,0.2,5.1,57,0.00,,,0.00,WUHU216HW,2013-04-02 10:50:00,
2013-04-02 06:55:00,24.8,11.4,29.70,North,0,1.8,5.1,56,0.00,,,0.00,WUHU216HW,2013-04-02 10:55:00,
2013-04-02 07:00:00,24.7,11.2,29.70,North,0,1.6,4.7,56,0.00,,,0.00,WUHU216HW,2013-04-02 11:00:00,
2013-04-02 07:05:00,24.8,11.7,29.70,North,0,0.7,2.5,57,0.00,,,0.00,WUHU216HW,2013-04-02 11:05:00,
2013-04-02 07:10:00,24.8,11.7,29.71,North,0,0.4,2.2,57,0.00,,,0.00,WUHU216HW,2013-04-02 11:10:00,
2013-04-02 07:15:00,24.8,11.7,29.71,North,0,0.2,1.3,57,0.00,,,0.00,WUHU216HW,2013-04-02 11:15:00,
2013-04-02 07:20:00,25.0,11.9,29.71,North,0,0.4,1.3,57,0.00,,,0.00,WUHU216HW,2013-04-02 11:20:00,
2013-04-02 07:25:00,25.2,12.1,29.72,North,0,0.4,1.3,57,0.00,,,0.00,WUHU216HW,2013-04-02 11:25:00,
2013-04-02 07:30:00,25.6,12.0,29.72,North,0,1.1,2.2,56,0.00,,,0.00,WUHU216HW,2013-04-02 11:30:00,
2013-04-02 07:35:00,25.7,11.7,29.72,North,0,0.9,2.2,55,0.00,,,0.00,WUHU216HW,2013-04-02 11:35:00,
2013-04-02 07:40:00,26.3,12.6,29.72,North,0,1.8,1.8,56,0.00,,,0.00,WUHU216HW,2013-04-02 11:40:00,
2013-04-02 07:45:00,26.3,11.0,29.72,NNE,23,0.4,4.7,52,0.00,,,0.00,WUHU216HW,2013-04-02 11:45:00,
2013-04-02 07:50:00,26.6,12.1,29.72,SW,225,1.1,4.7,54,0.00,,,0.00,WUHU216HW,2013-04-02 11:50:00,
2013-04-02 07:55:00,26.8,11.1,29.72,ESE,113,0.7,6.9,51,0.00,,,0.00,WUHU216HW,2013-04-02 11:55:00,
2013-04-02 08:00:00,27.0,10.8,29.72,NE,45,5.4,6.9,50,0.00,,,0.00,WUHU216HW,2013-04-02 12:00:00,
2013-04-02 08:05:00,27.0,10.4,29.72,SSW,203,7.4,8.7,49,0.00,,,0.00,WUHU216HW,2013-04-02 12:05:00,
2013-04-02 08:10:00,27.4,10.7,29.72,NNE,23,6.9,8.7,49,0.00,,,0.00,WUHU216HW,2013-04-02 12:10:00,
2013-04-02 08:16:00,27.5,10.4,29.72,SSW,203,5.4,6.9,48,0.00,,,0.00,WUHU216HW,2013-04-02 12:16:00,
2013-04-02 08:21:00,27.5,10.4,29.72,SE,135,5.4,7.8,48,0.00,,,0.00,WUHU216HW,2013-04-02 12:21:00,
2013-04-02 08:26:00,27.9,10.7,29.72,NNE,23,2.7,7.8,48,0.00,,,0.00,WUHU216HW,2013-04-02 12:26:00,
2013-04-02 08:31:00,28.1,10.9,29.72,SSW,203,1.3,6.9,48,0.00,,,0.00,WUHU216HW,2013-04-02 12:31:00,
2013-04-02 08:36:00,28.3,11.1,29.72,NW,315,3.6,6.9,48,0.00,,,0.00,WUHU216HW,2013-04-02 12:36:00,
2013-04-02 08:41:00,28.4,11.3,29.72,ENE,68,4.0,6.3,48,0.00,,,0.00,WUHU216HW,2013-04-02 12:41:00,
2013-04-02 08:46:00,29.0,11.7,29.72,ENE,68,3.4,6.3,48,0.00,,,0.00,WUHU216HW,2013-04-02 12:46:00,
2013-04-02 08:51:00,29.3,11.1,29.72,NE,45,7.2,7.2,46,0.00,,,0.00,WUHU216HW,2013-04-02 12:51:00,
2013-04-02 08:56:00,29.5,12.7,29.72,West,270,1.3,7.2,49,0.00,,,0.00,WUHU216HW,2013-04-02 12:56:00,
2013-04-02 09:01:00,29.7,11.3,29.72,ENE,68,1.8,7.2,46,0.00,,,0.00,WUHU216HW,2013-04-02 13:01:00,
2013-04-02 09:06:00,29.5,10.7,29.72,North,0,4.0,7.8,45,0.00,,,0.00,WUHU216HW,2013-04-02 13:06:00,
2013-04-02 09:11:00,29.7,9.4,29.72,NE,45,5.4,7.8,42,0.00,,,0.00,WUHU216HW,2013-04-02 13:11:00,
2013-04-02 09:17:00,29.7,10.9,29.72,North,0,0.7,7.2,45,0.00,,,0.00,WUHU216HW,2013-04-02 13:17:00,
2013-04-02 09:22:00,29.9,10.0,29.72,NNW,338,2.7,6.9,43,0.00,,,0.00,WUHU216HW,2013-04-02 13:22:00,
2013-04-02 09:27:00,29.7,10.9,29.72,WNW,293,3.4,6.9,45,0.00,,,0.00,WUHU216HW,2013-04-02 13:27:00,
2013-04-02 09:32:00,29.7,9.8,29.72,North,0,0.0,6.7,43,0.00,,,0.00,WUHU216HW,2013-04-02 13:32:00,
2013-04-02 09:37:00,29.3,9.6,29.72,North,0,0.0,4.9,43,0.00,,,0.00,WUHU216HW,2013-04-02 13:37:00,
2013-04-02 09:42:00,29.3,10.5,29.72,North,0,0.0,0.0,45,0.00,,,0.00,WUHU216HW,2013-04-02 13:42:00,
2013-04-02 09:47:00,29.7,10.4,29.72,NE,45,3.6,5.6,44,0.00,,,0.00,WUHU216HW,2013-04-02 13:47:00,
2013-04-02 09:52:00,29.7,10.4,29.72,ENE,68,3.6,5.6,44,0.00,,,0.00,WUHU216HW,2013-04-02 13:52:00,
2013-04-02 09:57:00,29.3,9.6,29.72,East,90,1.8,8.9,43,0.00,,,0.00,WUHU216HW,2013-04-02 13:57:00,
2013-04-02 10:02:00,29.5,10.7,29.72,ENE,68,0.7,8.9,45,0.00,,,0.00,WUHU216HW,2013-04-02 14:02:00,
2013-04-02 10:07:00,29.5,11.2,29.72,NE,45,2.5,5.6,46,0.00,,,0.00,WUHU216HW,2013-04-02 14:07:00,
2013-04-02 10:12:00,29.7,10.9,29.71,ENE,68,3.8,5.6,45,0.00,,,0.00,WUHU216HW,2013-04-02 14:12:00,
2013-04-02 10:17:00,29.7,10.9,29.72,NNE,23,3.4,7.6,45,0.00,,,0.00,WUHU216HW,2013-04-02 14:17:00,
2013-04-02 10:22:00,29.9,12.1,29.72,North,0,1.8,7.6,47,0.00,,,0.00,WUHU216HW,2013-04-02 14:22:00,
2013-04-02 10:27:00,30.1,10.7,29.72,North,0,4.0,8.3,44,0.00,,,0.00,WUHU216HW,2013-04-02 14:27:00,
2013-04-02 10:32:00,30.4,11.5,29.71,SE,135,2.2,8.3,45,0.00,,,0.00,WUHU216HW,2013-04-02 14:32:00,
2013-04-02 10:37:00,30.8,11.4,29.71,North,0,4.5,5.4,44,0.00,,,0.00,WUHU216HW,2013-04-02 14:37:00,
2013-04-02 10:42:00,30.6,10.6,29.71,ENE,68,4.3,7.6,43,0.00,,,0.00,WUHU216HW,2013-04-02 14:42:00,
2013-04-02 10:47:00,31.0,11.0,29.71,NE,45,4.5,8.3,43,0.00,,,0.00,WUHU216HW,2013-04-02 14:47:00,
2013-04-02 10:52:00,31.1,10.6,29.71,WNW,293,4.9,8.3,42,0.00,,,0.00,WUHU216HW,2013-04-02 14:52:00,
2013-04-02 10:57:00,31.3,11.8,29.71,NNW,338,2.0,6.9,44,0.00,,,0.00,WUHU216HW,2013-04-02 14:57:00,
2013-04-02 11:02:00,31.9,12.3,29.71,ENE,68,4.0,5.6,44,0.00,,,0.00,WUHU216HW,2013-04-02 15:02:00,
2013-04-02 11:07:00,32.0,12.4,29.71,NNE,23,4.7,6.9,44,0.00,,,0.00,WUHU216HW,2013-04-02 15:07:00,
2013-04-02 11:12:00,31.7,10.6,29.71,ENE,68,4.7,12.3,41,0.00,,,0.00,WUHU216HW,2013-04-02 15:12:00,
2013-04-02 11:17:00,31.1,11.6,29.71,North,0,4.7,12.3,44,0.00,,,0.00,WUHU216HW,2013-04-02 15:17:00,
2013-04-02 11:22:00,31.3,11.8,29.70,NNW,338,0.9,9.2,44,0.00,,,0.00,WUHU216HW,2013-04-02 15:22:00,
2013-04-02 11:27:00,31.7,12.2,29.71,NW,315,4.7,7.2,44,0.00,,,0.00,WUHU216HW,2013-04-02 15:27:00,
2013-04-02 11:33:00,32.0,14.5,29.71,NNE,23,5.4,8.3,48,0.00,,,0.00,WUHU216HW,2013-04-02 15:33:00,
2013-04-02 11:38:00,31.7,13.7,29.71,NNW,338,2.9,9.8,47,0.00,,,0.00,WUHU216HW,2013-04-02 15:38:00,
2013-04-02 11:43:00,31.7,13.1,29.71,NNE,23,5.4,9.8,46,0.00,,,0.00,WUHU216HW,2013-04-02 15:43:00,
2013-04-02 11:48:00,31.9,13.3,29.70,NNE,23,4.9,9.2,46,0.00,,,0.00,WUHU216HW,2013-04-02 15:48:00,
2013-04-02 11:53:00,31.9,13.3,29.69,North,0,2.2,9.8,46,0.00,,,0.00,WUHU216HW,2013-04-02 15:53:00,
2013-04-02 11:58:00,31.7,12.2,29.70,NNE,23,7.8,10.1,44,0.00,,,0.00,WUHU216HW,2013-04-02 15:58:00,
2013-04-02 12:03:00,31.7,12.2,29.70,ENE,68,10.5,15.0,44,0.00,,,0.00,WUHU216HW,2013-04-02 16:03:00,
2013-04-02 12:08:00,32.0,12.4,29.69,SE,135,6.9,15.0,44,0.00,,,0.00,WUHU216HW,2013-04-02 16:08:00,
2013-04-02 12:13:00,32.4,13.3,29.69,SE,135,9.6,10.5,45,0.00,,,0.00,WUHU216HW,2013-04-02 16:13:00,
2013-04-02 12:18:00,32.4,12.2,29.69,NE,45,1.8,9.8,43,0.00,,,0.00,WUHU216HW,2013-04-02 16:18:00,
2013-04-02 12:23:00,33.1,12.4,29.69,NNE,23,12.1,12.1,42,0.00,,,0.00,WUHU216HW,2013-04-02 16:23:00,
2013-04-02 12:28:00,32.6,12.0,29.69,ENE,68,4.0,12.1,42,0.00,,,0.00,WUHU216HW,2013-04-02 16:28:00,
2013-04-02 12:33:00,32.4,12.2,29.69,ESE,113,5.8,12.1,43,0.00,,,0.00,WUHU216HW,2013-04-02 16:33:00,
2013-04-02 12:38:00,34.2,15.0,29.69,SE,135,3.1,9.4,45,0.00,,,0.00,WUHU216HW,2013-04-02 16:38:00,
2013-04-02 12:43:00,34.9,12.4,29.68,ENE,68,9.2,16.3,39,0.00,,,0.00,WUHU216HW,2013-04-02 16:43:00,
2013-04-02 12:48:00,34.0,12.7,29.68,North,0,3.8,16.3,41,0.00,,,0.00,WUHU216HW,2013-04-02 16:48:00,
2013-04-02 12:53:00,34.9,14.6,29.68,North,0,2.9,9.2,43,0.00,,,0.00,WUHU216HW,2013-04-02 16:53:00,
2013-04-02 12:58:00,35.6,14.8,29.68,ESE,113,4.3,5.6,42,0.00,,,0.00,WUHU216HW,2013-04-02 16:58:00,
2013-04-02 13:03:00,36.0,14.5,29.68,NW,315,6.7,6.7,41,0.00,,,0.00,WUHU216HW,2013-04-02 17:03:00,
2013-04-02 13:08:00,35.3,13.3,29.68,North,0,9.4,9.4,40,0.00,,,0.00,WUHU216HW,2013-04-02 17:08:00,
2013-04-02 13:13:00,34.2,13.4,29.68,SE,135,8.5,12.8,42,0.00,,,0.00,WUHU216HW,2013-04-02 17:13:00,
2013-04-02 13:19:00,34.2,11.8,29.67,West,270,4.5,12.8,39,0.00,,,0.00,WUHU216HW,2013-04-02 17:19:00,
2013-04-02 13:24:00,34.6,13.2,29.67,North,0,2.5,12.8,41,0.00,,,0.00,WUHU216HW,2013-04-02 17:24:00,
2013-04-02 13:29:00,34.9,13.6,29.67,East,90,4.7,9.6,41,0.00,,,0.00,WUHU216HW,2013-04-02 17:29:00,
2013-04-02 13:34:00,35.3,14.4,29.67,SSE,158,2.9,9.4,42,0.00,,,0.00,WUHU216HW,2013-04-02 17:34:00,
2013-04-02 13:39:00,35.1,13.7,29.67,ESE,113,6.7,9.4,41,0.00,,,0.00,WUHU216HW,2013-04-02 17:39:00,
2013-04-02 13:44:00,34.7,13.4,29.67,NNW,338,5.4,17.7,41,0.00,,,0.00,WUHU216HW,2013-04-02 17:44:00,
2013-04-02 13:49:00,35.6,14.8,29.67,ENE,68,11.2,17.7,42,0.00,,,0.00,WUHU216HW,2013-04-02 17:49:00,
2013-04-02 13:54:00,36.2,12.9,29.67,ENE,68,2.5,15.0,38,0.00,,,0.00,WUHU216HW,2013-04-02 17:54:00,
2013-04-02 13:59:00,36.7,13.3,29.66,SE,135,3.1,15.0,38,0.00,,,0.00,WUHU216HW,2013-04-02 17:59:00,
2013-04-02 14:04:00,37.1,13.7,29.67,North,0,4.5,14.5,38,0.00,,,0.00,WUHU216HW,2013-04-02 18:04:00,
2013-04-02 14:09:00,36.9,12.9,29.67,NE,45,3.8,8.5,37,0.00,,,0.00,WUHU216HW,2013-04-02 18:09:00,
2013-04-02 14:14:00,36.7,12.7,29.67,ENE,68,7.6,10.3,37,0.00,,,0.00,WUHU216HW,2013-04-02 18:14:00,
2013-04-02 14:19:00,36.2,12.3,29.67,ESE,113,2.2,11.0,37,0.00,,,0.00,WUHU216HW,2013-04-02 18:19:00,
2013-04-02 14:24:00,35.8,12.5,29.67,ESE,113,7.4,11.0,38,0.00,,,0.00,WUHU216HW,2013-04-02 18:24:00,
2013-04-02 14:29:00,35.5,12.3,29.67,North,0,2.7,14.1,38,0.00,,,0.00,WUHU216HW,2013-04-02 18:29:00,
2013-04-02 14:34:00,34.9,11.8,29.67,NNE,23,3.4,14.1,38,0.00,,,0.00,WUHU216HW,2013-04-02 18:34:00,
2013-04-02 14:39:00,34.6,12.7,29.67,NNW,338,3.6,10.3,40,0.00,,,0.00,WUHU216HW,2013-04-02 18:39:00,
2013-04-02 14:44:00,34.2,10.4,29.67,ENE,68,10.5,11.4,37,0.00,,,0.00,WUHU216HW,2013-04-02 18:44:00,
2013-04-02 14:49:00,34.2,10.4,29.67,NW,315,11.6,11.6,37,0.00,,,0.00,WUHU216HW,2013-04-02 18:49:00,
2013-04-02 14:55:00,34.4,10.6,29.67,NNE,23,6.9,13.4,37,0.00,,,0.00,WUHU216HW,2013-04-02 18:55:00,
2013-04-02 15:00:00,35.5,10.3,29.66,ESE,113,6.9,13.4,35,0.00,,,0.00,WUHU216HW,2013-04-02 19:00:00,
2013-04-02 15:05:00,35.6,10.4,29.66,NE,45,6.3,12.3,35,0.00,,,0.00,WUHU216HW,2013-04-02 19:05:00,
2013-04-02 15:10:00,35.5,11.6,29.67,NE,45,9.4,12.3,37,0.00,,,0.00,WUHU216HW,2013-04-02 19:10:00,
2013-04-02 15:15:00,34.7,11.0,29.67,North,0,3.4,10.3,37,0.00,,,0.00,WUHU216HW,2013-04-02 19:15:00,
2013-04-02 15:20:00,34.4,11.9,29.67,NE,45,3.4,10.3,39,0.00,,,0.00,WUHU216HW,2013-04-02 19:20:00,
2013-04-02 15:25:00,34.6,11.4,29.67,ESE,113,2.0,9.4,38,0.00,,,0.00,WUHU216HW,2013-04-02 19:25:00,
2013-04-02 15:30:00,35.3,11.4,29.67,ESE,113,4.9,12.1,37,0.00,,,0.00,WUHU216HW,2013-04-02 19:30:00,
2013-04-02 15:35:00,35.1,12.5,29.67,West,270,2.9,12.1,39,0.00,,,0.00,WUHU216HW,2013-04-02 19:35:00,
2013-04-02 15:40:00,34.7,11.0,29.67,SE,135,2.7,9.4,37,0.00,,,0.00,WUHU216HW,2013-04-02 19:40:00,
2013-04-02 15:45:00,34.9,12.4,29.67,SE,135,3.8,9.4,39,0.00,,,0.00,WUHU216HW,2013-04-02 19:45:00,
2013-04-02 15:50:00,35.6,12.4,29.67,East,90,3.4,6.3,38,0.00,,,0.00,WUHU216HW,2013-04-02 19:50:00,
2013-04-02 15:55:00,35.3,10.8,29.67,East,90,12.3,17.2,36,0.00,,,0.00,WUHU216HW,2013-04-02 19:55:00,
2013-04-02 16:00:00,34.6,11.4,29.67,East,90,10.3,17.2,38,0.00,,,0.00,WUHU216HW,2013-04-02 20:00:00,
2013-04-02 16:05:00,34.0,11.6,29.67,East,90,6.9,12.8,39,0.00,,,0.00,WUHU216HW,2013-04-02 20:05:00,
2013-04-02 16:11:00,34.4,11.3,29.69,NW,315,8.5,14.5,38,0.00,,,0.00,WUHU216HW,2013-04-02 20:11:00,
2013-04-02 16:16:00,34.6,10.8,29.68,NNE,23,2.0,14.5,37,0.00,,,0.00,WUHU216HW,2013-04-02 20:16:00,
2013-04-02 16:21:00,34.9,11.1,29.68,NW,315,7.2,14.3,37,0.00,,,0.00,WUHU216HW,2013-04-02 20:21:00,
2013-04-02 16:26:00,34.4,11.9,29.68,NW,315,0.7,8.3,39,0.00,,,0.00,WUHU216HW,2013-04-02 20:26:00,
2013-04-02 16:32:00,34.0,9.7,29.68,North,0,10.1,17.9,36,0.00,,,0.00,WUHU216HW,2013-04-02 20:32:00,
2013-04-02 16:37:00,34.0,11.6,29.69,NNW,338,3.8,17.9,39,0.00,,,0.00,WUHU216HW,2013-04-02 20:37:00,
2013-04-02 16:42:00,33.5,10.4,29.69,North,0,4.7,14.8,38,0.00,,,0.00,WUHU216HW,2013-04-02 20:42:00,
2013-04-02 16:47:00,33.7,11.3,29.69,West,270,4.0,14.8,39,0.00,,,0.00,WUHU216HW,2013-04-02 20:47:00,
2013-04-02 16:52:00,34.2,12.9,29.69,North,0,6.7,9.4,41,0.00,,,0.00,WUHU216HW,2013-04-02 20:52:00,
2013-04-02 16:57:00,33.8,13.1,29.69,SW,225,2.5,14.8,42,0.00,,,0.00,WUHU216HW,2013-04-02 20:57:00,
2013-04-02 17:02:00,33.8,13.1,29.69,NE,45,10.7,14.8,42,0.00,,,0.00,WUHU216HW,2013-04-02 21:02:00,
2013-04-02 17:07:00,33.3,11.6,29.70,NNE,23,21.5,21.5,40,0.00,,,0.00,WUHU216HW,2013-04-02 21:07:00,
2013-04-02 17:12:00,32.9,12.2,29.70,ENE,68,6.0,21.5,42,0.00,,,0.00,WUHU216HW,2013-04-02 21:12:00,
2013-04-02 17:17:00,32.9,11.3,29.69,NNE,23,4.5,11.4,40,0.00,,,0.00,WUHU216HW,2013-04-02 21:17:00,
2013-04-02 17:22:00,32.8,12.6,29.69,NNW,338,9.6,12.8,43,0.00,,,0.00,WUHU216HW,2013-04-02 21:22:00,
2013-04-02 17:27:00,32.6,11.4,29.71,NNE,23,14.8,16.8,41,0.00,,,0.00,WUHU216HW,2013-04-02 21:27:00,
2013-04-02 17:32:00,32.2,12.2,29.71,North,0,4.0,16.8,43,0.00,,,0.00,WUHU216HW,2013-04-02 21:32:00,
2013-04-02 17:37:00,32.2,13.2,29.71,ENE,68,8.5,14.8,45,0.00,,,0.00,WUHU216HW,2013-04-02 21:37:00,
2013-04-02 17:42:00,32.0,13.5,29.71,NNW,338,1.8,9.8,46,0.00,,,0.00,WUHU216HW,2013-04-02 21:42:00,
2013-04-02 17:48:00,31.5,13.0,29.70,North,0,4.0,10.3,46,0.00,,,0.00,WUHU216HW,2013-04-02 21:48:00,
2013-04-02 17:53:00,31.3,13.3,29.71,ENE,68,3.4,10.3,47,0.00,,,0.00,WUHU216HW,2013-04-02 21:53:00,
2013-04-02 17:58:00,31.3,11.8,29.71,WSW,248,7.4,13.4,44,0.00,,,0.00,WUHU216HW,2013-04-02 21:58:00,
2013-04-02 18:03:00,31.5,12.0,29.71,North,0,4.3,20.8,44,0.00,,,0.00,WUHU216HW,2013-04-02 22:03:00,
2013-04-02 18:08:00,31.7,13.1,29.72,NNW,338,2.7,20.8,46,0.00,,,0.00,WUHU216HW,2013-04-02 22:08:00,
2013-04-02 18:13:00,31.7,12.6,29.72,North,0,5.8,9.2,45,0.00,,,0.00,WUHU216HW,2013-04-02 22:13:00,
2013-04-02 18:18:00,31.7,12.6,29.72,North,0,5.8,10.7,45,0.00,,,0.00,WUHU216HW,2013-04-02 22:18:00,
2013-04-02 18:23:00,31.5,12.0,29.72,NE,45,3.6,12.8,44,0.00,,,0.00,WUHU216HW,2013-04-02 22:23:00,
2013-04-02 18:28:00,31.5,13.0,29.72,WSW,248,0.9,12.8,46,0.00,,,0.00,WUHU216HW,2013-04-02 22:28:00,
2013-04-02 18:33:00,31.5,13.0,29.72,North,0,0.4,11.2,46,0.00,,,0.00,WUHU216HW,2013-04-02 22:33:00,
2013-04-02 18:38:00,31.3,12.8,29.73,North,0,3.1,7.4,46,0.00,,,0.00,WUHU216HW,2013-04-02 22:38:00,
2013-04-02 18:43:00,31.3,12.3,29.73,ENE,68,8.3,8.3,45,0.00,,,0.00,WUHU216HW,2013-04-02 22:43:00,
2013-04-02 18:48:00,31.1,13.1,29.73,SE,135,8.5,15.9,47,0.00,,,0.00,WUHU216HW,2013-04-02 22:48:00,
2013-04-02 18:53:00,31.0,13.0,29.73,ENE,68,5.1,15.9,47,0.00,,,0.00,WUHU216HW,2013-04-02 22:53:00,
2013-04-02 18:58:00,30.8,13.9,29.73,ENE,68,2.2,10.5,49,0.00,,,0.00,WUHU216HW,2013-04-02 22:58:00,
2013-04-02 19:03:00,30.8,13.3,29.73,ENE,68,4.0,11.9,48,0.00,,,0.00,WUHU216HW,2013-04-02 23:03:00,
2013-04-02 19:08:00,30.8,13.9,29.73,NNE,23,4.3,11.9,49,0.00,,,0.00,WUHU216HW,2013-04-02 23:08:00,
2013-04-02 19:13:00,30.6,13.7,29.72,East,90,6.9,12.1,49,0.00,,,0.00,WUHU216HW,2013-04-02 23:13:00,
2013-04-02 19:18:00,30.6,13.7,29.72,North,0,5.6,13.2,49,0.00,,,0.00,WUHU216HW,2013-04-02 23:18:00,
2013-04-02 19:24:00,30.6,14.2,29.73,ENE,68,4.5,14.8,50,0.00,,,0.00,WUHU216HW,2013-04-02 23:24:00,
2013-04-02 19:29:00,30.6,14.2,29.73,North,0,3.4,14.8,50,0.00,,,0.00,WUHU216HW,2013-04-02 23:29:00,
2013-04-02 19:34:00,30.6,14.6,29.74,ENE,68,3.6,9.6,51,0.00,,,0.00,WUHU216HW,2013-04-02 23:34:00,
2013-04-02 19:39:00,30.2,15.1,29.74,NNE,23,2.7,5.6,53,0.00,,,0.00,WUHU216HW,2013-04-02 23:39:00,
2013-04-02 19:44:00,30.1,15.4,29.73,NNW,338,7.4,8.5,54,0.00,,,0.00,WUHU216HW,2013-04-02 23:44:00,
2013-04-02 19:49:00,29.9,15.6,29.74,ENE,68,4.0,8.5,55,0.00,,,0.00,WUHU216HW,2013-04-02 23:49:00,
2013-04-02 19:55:00,29.9,15.6,29.74,East,90,2.0,7.4,55,0.00,,,0.00,WUHU216HW,2013-04-02 23:55:00,
2013-04-02 20:00:00,29.9,16.0,29.74,East,90,4.0,11.6,56,0.00,,,0.00,WUHU216HW,2013-04-03 00:00:00,
2013-04-02 20:05:00,29.9,16.0,29.75,ENE,68,1.1,11.6,56,0.00,,,0.00,WUHU216HW,2013-04-03 00:05:00,
2013-04-02 20:12:00,29.9,16.8,29.75,ENE,68,6.9,6.9,58,0.00,,,0.00,WUHU216HW,2013-04-03 00:12:00,
2013-04-02 20:13:00,29.9,16.8,29.75,ENE,68,6.9,6.9,58,0.00,,,0.00,WUHU216HW,2013-04-03 00:13:00,
2013-04-02 20:17:00,29.7,16.7,29.75,NNW,338,3.4,10.1,58,0.00,,,0.00,WUHU216HW,2013-04-03 00:17:00,
2013-04-02 20:27:00,29.7,16.7,29.75,South,180,3.4,7.6,58,0.00,,,0.00,WUHU216HW,2013-04-03 00:27:00,
2013-04-02 20:37:00,29.7,16.3,29.75,South,180,2.2,11.4,57,0.00,,,0.00,WUHU216HW,2013-04-03 00:37:00,
2013-04-02 20:44:00,29.7,16.7,29.76,NE,45,5.1,13.6,58,0.00,,,0.00,WUHU216HW,2013-04-03 00:44:00,
2013-04-02 20:53:00,29.5,16.6,29.76,NE,45,10.1,10.5,58,0.00,,,0.00,WUHU216HW,2013-04-03 00:53:00,
2013-04-02 20:58:00,29.7,16.7,29.76,NW,315,4.0,10.5,58,0.00,,,0.00,WUHU216HW,2013-04-03 00:58:00,
2013-04-02 21:03:00,29.7,16.7,29.76,SE,135,1.1,9.8,58,0.00,,,0.00,WUHU216HW,2013-04-03 01:03:00,
2013-04-02 21:08:00,29.5,16.1,29.76,ENE,68,6.3,11.9,57,0.00,,,0.00,WUHU216HW,2013-04-03 01:08:00,
2013-04-02 21:14:00,29.5,16.1,29.76,North,0,4.0,11.9,57,0.00,,,0.00,WUHU216HW,2013-04-03 01:14:00,
2013-04-02 21:20:00,29.7,15.8,29.76,NNE,23,6.3,11.2,56,0.00,,,0.00,WUHU216HW,2013-04-03 01:20:00,
2013-04-02 21:25:00,29.7,16.3,29.76,ENE,68,5.4,11.2,57,0.00,,,0.00,WUHU216HW,2013-04-03 01:25:00,
2013-04-02 21:26:00,29.7,16.3,29.76,ENE,68,5.4,11.2,57,0.00,,,0.00,WUHU216HW,2013-04-03 01:26:00,
2013-04-02 21:30:00,29.7,16.3,29.76,NNE,23,3.4,11.4,57,0.00,,,0.00,WUHU216HW,2013-04-03 01:30:00,
2013-04-02 21:35:00,29.5,16.1,29.76,West,270,2.2,11.4,57,0.00,,,0.00,WUHU216HW,2013-04-03 01:35:00,
2013-04-02 21:41:00,29.5,16.1,29.76,NE,45,0.7,4.9,57,0.00,,,0.00,WUHU216HW,2013-04-03 01:41:00,
2013-04-02 21:47:00,29.5,16.6,29.76,ENE,68,2.9,4.9,58,0.00,,,0.00,WUHU216HW,2013-04-03 01:47:00,
2013-04-02 21:56:00,29.9,15.6,29.76,NNE,23,4.0,7.6,55,0.00,,,0.00,WUHU216HW,2013-04-03 01:56:00,
2013-04-02 22:01:00,29.7,15.0,29.76,North,0,2.7,7.6,54,0.00,,,0.00,WUHU216HW,2013-04-03 02:01:00,
2013-04-02 22:07:00,29.7,15.0,29.76,NE,45,7.2,7.2,54,0.00,,,0.00,WUHU216HW,2013-04-03 02:07:00,
2013-04-02 22:12:00,29.9,14.8,29.76,NW,315,2.5,11.4,53,0.00,,,0.00,WUHU216HW,2013-04-03 02:12:00,
2013-04-02 22:17:00,29.9,14.8,29.76,East,90,4.7,11.4,53,0.00,,,0.00,WUHU216HW,2013-04-03 02:17:00,
2013-04-02 22:22:00,29.9,14.4,29.76,NW,315,0.7,8.3,52,0.00,,,0.00,WUHU216HW,2013-04-03 02:22:00,
2013-04-02 22:27:00,29.9,14.4,29.76,SE,135,3.4,9.4,52,0.00,,,0.00,WUHU216HW,2013-04-03 02:27:00,
2013-04-02 22:32:00,29.9,15.2,29.76,ESE,113,5.6,9.4,54,0.00,,,0.00,WUHU216HW,2013-04-03 02:32:00,
2013-04-02 22:37:00,29.5,14.5,29.76,East,90,4.5,5.6,53,0.00,,,0.00,WUHU216HW,2013-04-03 02:37:00,
2013-04-02 22:42:00,29.5,14.9,29.76,SW,225,8.5,8.5,54,0.00,,,0.00,WUHU216HW,2013-04-03 02:42:00,
2013-04-02 22:47:00,29.7,14.2,29.76,NE,45,6.9,9.6,52,0.00,,,0.00,WUHU216HW,2013-04-03 02:47:00,
2013-04-02 22:52:00,29.9,14.4,29.76,North,0,6.9,9.6,52,0.00,,,0.00,WUHU216HW,2013-04-03 02:52:00,
2013-04-02 22:57:00,29.9,14.4,29.75,North,0,2.5,9.4,52,0.00,,,0.00,WUHU216HW,2013-04-03 02:57:00,
2013-04-02 23:03:00,29.7,14.2,29.76,ESE,113,1.8,9.4,52,0.00,,,0.00,WUHU216HW,2013-04-03 03:03:00,
2013-04-02 23:08:00,29.7,14.2,29.76,ENE,68,0.9,9.2,52,0.00,,,0.00,WUHU216HW,2013-04-03 03:08:00,
2013-04-02 23:13:00,29.5,14.0,29.76,NW,315,2.5,5.8,52,0.00,,,0.00,WUHU216HW,2013-04-03 03:13:00,
2013-04-02 23:18:00,29.5,14.0,29.76,ESE,113,6.3,6.3,52,0.00,,,0.00,WUHU216HW,2013-04-03 03:18:00,
2013-04-02 23:23:00,29.5,14.0,29.76,ENE,68,0.9,8.5,52,0.00,,,0.00,WUHU216HW,2013-04-03 03:23:00,
2013-04-02 23:28:00,29.5,14.0,29.76,NE,45,0.7,8.5,52,0.00,,,0.00,WUHU216HW,2013-04-03 03:28:00,
2013-04-02 23:34:00,29.5,13.6,29.77,ENE,68,5.1,17.9,51,0.00,,,0.00,WUHU216HW,2013-04-03 03:34:00,
2013-04-02 23:39:00,29.7,13.8,29.77,North,0,2.7,17.9,51,0.00,,,0.00,WUHU216HW,2013-04-03 03:39:00,
2013-04-02 23:44:00,29.5,14.0,29.77,North,0,4.3,8.7,52,0.00,,,0.00,WUHU216HW,2013-04-03 03:44:00,
2013-04-02 23:49:00,29.5,14.0,29.77,SE,135,8.7,8.7,52,0.00,,,0.00,WUHU216HW,2013-04-03 03:49:00,
2013-04-02 23:54:00,29.5,13.6,29.77,SW,225,4.7,12.5,51,0.00,,,0.00,WUHU216HW,2013-04-03 03:54:00,
2013-04-02 23:59:00,29.7,14.2,29.77,ENE,68,4.3,12.5,52,0.00,,,0.00,WUHU216HW,2013-04-03 03:59:00,